createdAt,value
2019-05-10T00:00:59.723Z,20.40
2019-05-10T00:03:46.546Z,20.23
2019-05-10T00:06:33.589Z,20.80
2019-05-10T00:09:02.206Z,19.77
2019-05-10T00:11:56.385Z,20.43
2019-05-10T00:14:59.846Z,20.80
2019-05-10T00:17:29.392Z,22.93
2019-05-10T00:19:58.812Z,21.67
2019-05-10T00:22:28.264Z,23.07
2019-05-10T00:25:04.459Z,21.50
2019-05-10T00:27:28.967Z,19.17
2019-05-10T00:29:58.576Z,19.37
2019-05-10T00:32:28.029Z,19.53
2019-05-10T00:34:57.694Z,19.63
2019-05-10T00:37:27.285Z,20.07
2019-05-10T00:39:56.812Z,19.93
2019-05-10T00:42:26.251Z,19.53
2019-05-10T00:44:55.605Z,18.90
2019-05-10T00:47:25.057Z,19.40
2019-05-10T00:49:54.507Z,19.00
2019-05-10T00:52:23.921Z,21.07
2019-05-10T00:54:53.525Z,19.53
2019-05-10T00:57:23.112Z,19.47
2019-05-10T00:59:52.476Z,19.23
2019-05-10T01:02:22.001Z,17.83
2019-05-10T01:04:51.480Z,15.93
2019-05-10T01:07:20.935Z,15.13
2019-05-10T01:09:50.351Z,14.87
2019-05-10T01:12:19.943Z,13.87
2019-05-10T01:14:49.373Z,12.07
2019-05-10T01:17:18.889Z,11.77
2019-05-10T01:19:48.361Z,12.13
2019-05-10T01:22:17.859Z,12.73
2019-05-10T01:24:47.341Z,12.53
2019-05-10T01:27:16.966Z,12.50
2019-05-10T01:29:46.557Z,12.57
2019-05-10T01:32:16.195Z,12.50
2019-05-10T01:34:45.733Z,13.03
2019-05-10T01:37:15.176Z,14.13
2019-05-10T01:39:44.687Z,15.03
2019-05-10T01:42:14.169Z,14.63
2019-05-10T01:44:43.991Z,15.67
2019-05-10T01:47:13.432Z,16.30
2019-05-10T01:49:42.956Z,17.03
2019-05-10T01:52:12.412Z,17.60
2019-05-10T01:54:41.887Z,18.90
2019-05-10T01:57:11.536Z,19.20
2019-05-10T01:59:41.054Z,17.93
2019-05-10T02:02:10.519Z,16.90
2019-05-10T02:04:40.010Z,17.73
2019-05-10T02:07:09.548Z,17.57
2019-05-10T02:09:38.996Z,17.97
2019-05-10T02:12:08.392Z,16.90
2019-05-10T02:14:37.821Z,15.70
2019-05-10T02:17:07.397Z,15.77
2019-05-10T02:19:36.857Z,15.80
2019-05-10T02:22:06.237Z,14.63
2019-05-10T02:24:35.712Z,12.13
2019-05-10T02:27:05.214Z,13.47
2019-05-10T02:29:34.721Z,12.67
2019-05-10T02:32:04.216Z,13.00
2019-05-10T02:34:33.759Z,14.87
2019-05-10T02:37:03.212Z,14.03
2019-05-10T02:39:32.849Z,13.20
2019-05-10T02:42:03.223Z,14.53
2019-05-10T02:44:32.725Z,14.03
2019-05-10T02:47:02.232Z,13.20
2019-05-10T02:49:31.657Z,13.50
2019-05-10T02:52:01.191Z,14.10
2019-05-10T02:54:30.940Z,14.23
2019-05-10T02:57:02.018Z,14.33
2019-05-10T02:59:32.652Z,13.47
2019-05-10T03:02:05.434Z,13.27
2019-05-10T03:04:37.136Z,13.70
2019-05-10T03:07:07.172Z,14.87
2019-05-10T03:09:36.584Z,14.53
2019-05-10T03:12:38.834Z,15.30
2019-05-10T03:15:08.649Z,14.90
2019-05-10T03:17:40.253Z,15.13
2019-05-10T03:20:11.189Z,17.07
2019-05-10T03:22:44.270Z,16.90
2019-05-10T03:25:14.947Z,18.13
2019-05-10T03:27:44.446Z,19.50
2019-05-10T03:30:14.107Z,19.00
2019-05-10T03:32:43.636Z,20.13
2019-05-10T03:35:13.178Z,20.50
2019-05-10T03:37:42.707Z,19.80
2019-05-10T03:40:12.250Z,21.23
2019-05-10T03:42:41.732Z,21.43
2019-05-10T03:45:11.428Z,23.13
2019-05-10T03:47:41.029Z,24.47
2019-05-10T03:50:10.713Z,25.77
2019-05-10T03:52:40.321Z,27.30
2019-05-10T03:55:09.909Z,26.83
2019-05-10T03:57:39.368Z,25.70
2019-05-10T04:00:13.727Z,26.43
2019-05-10T04:02:43.380Z,28.53
2019-05-10T04:05:12.905Z,28.87
2019-05-10T04:07:42.381Z,31.13
2019-05-10T04:10:12.085Z,27.87
2019-05-10T04:12:41.420Z,27.80
2019-05-10T04:15:11.587Z,29.07
2019-05-10T04:17:40.991Z,28.10
2019-05-10T04:20:10.792Z,28.77
2019-05-10T04:22:40.335Z,27.27
2019-05-10T04:25:10.296Z,26.60
2019-05-10T04:27:39.814Z,27.53
2019-05-10T04:30:09.812Z,27.53
2019-05-10T04:32:39.341Z,28.40
2019-05-10T04:35:08.853Z,29.30
2019-05-10T04:37:38.360Z,27.87
2019-05-10T04:40:08.053Z,26.50
2019-05-10T04:42:37.652Z,28.70
2019-05-10T04:45:08.376Z,28.13
2019-05-10T04:47:37.966Z,25.53
2019-05-10T04:50:07.473Z,27.30
2019-05-10T04:52:37.006Z,26.53
2019-05-10T04:55:07.057Z,27.47
2019-05-10T04:57:49.955Z,26.00
2019-05-10T05:00:08.815Z,27.33
2019-05-10T05:02:38.366Z,27.07
2019-05-10T05:05:07.986Z,28.23
2019-05-10T05:07:37.504Z,26.30
2019-05-10T05:10:08.393Z,25.33
2019-05-10T05:12:37.794Z,24.33
2019-05-10T05:15:07.330Z,22.10
2019-05-10T05:17:36.960Z,22.73
2019-05-10T05:20:06.697Z,22.23
2019-05-10T05:22:36.342Z,21.10
2019-05-10T05:25:06.121Z,22.40
2019-05-10T05:27:35.597Z,22.00
2019-05-10T05:30:05.393Z,19.77
2019-05-10T05:32:38.615Z,20.87
2019-05-10T05:35:06.264Z,19.73
2019-05-10T05:37:35.886Z,20.13
2019-05-10T05:40:05.818Z,19.33
2019-05-10T05:42:35.341Z,19.90
2019-05-10T05:45:05.399Z,20.03
2019-05-10T05:47:41.759Z,19.20
2019-05-10T05:50:06.435Z,17.67
2019-05-10T05:52:35.976Z,19.43
2019-05-10T05:55:06.064Z,17.83
2019-05-10T05:57:35.560Z,17.90
2019-05-10T06:00:06.656Z,18.37
2019-05-10T06:02:44.185Z,18.17
2019-05-10T06:05:07.464Z,16.63
2019-05-10T06:07:39.399Z,17.33
2019-05-10T06:10:10.452Z,16.93
2019-05-10T06:12:44.647Z,17.47
2019-05-10T06:15:11.421Z,18.60
2019-05-10T06:17:41.101Z,18.83
2019-05-10T06:20:12.349Z,18.17
2019-05-10T06:22:43.848Z,18.53
2019-05-10T06:25:12.890Z,19.70
2019-05-10T06:27:43.269Z,21.70
2019-05-10T06:30:12.905Z,21.20
2019-05-10T06:32:42.364Z,20.73
2019-05-10T06:35:14.037Z,20.43
2019-05-10T06:37:43.550Z,20.30
2019-05-10T06:40:13.370Z,20.90
2019-05-10T06:42:43.025Z,22.53
2019-05-10T06:45:15.802Z,22.90
2019-05-10T06:47:47.721Z,21.37
2019-05-10T06:50:15.649Z,22.73
2019-05-10T06:52:45.135Z,22.77
2019-05-10T06:55:15.025Z,22.80
2019-05-10T06:57:49.806Z,21.90
2019-05-10T07:00:17.685Z,23.20
2019-05-10T07:02:47.301Z,22.80
2019-05-10T07:05:16.840Z,24.13
2019-05-10T07:07:46.287Z,23.60
2019-05-10T07:10:19.519Z,22.93
2019-05-10T07:12:46.997Z,23.57
2019-05-10T07:15:16.691Z,24.67
2019-05-10T07:17:47.367Z,24.37
2019-05-10T07:20:16.856Z,25.17
2019-05-10T07:22:46.424Z,25.37
2019-05-10T07:25:16.195Z,25.67
2019-05-10T07:27:45.644Z,26.40
2019-05-10T07:30:16.816Z,26.00
2019-05-10T07:32:46.291Z,28.43
2019-05-10T07:35:16.122Z,27.23
2019-05-10T07:37:47.779Z,27.77
2019-05-10T07:40:16.659Z,28.73
2019-05-10T07:42:47.150Z,28.63
2019-05-10T07:45:18.804Z,27.10
2019-05-10T07:47:47.823Z,28.60
2019-05-10T07:50:17.628Z,29.27
2019-05-10T07:52:47.124Z,28.67
2019-05-10T07:55:18.013Z,29.90
2019-05-10T07:57:47.657Z,28.43
2019-05-10T08:00:17.664Z,28.43
2019-05-10T08:02:52.764Z,30.43
2019-05-10T08:05:18.578Z,27.57
2019-05-10T08:07:49.514Z,27.83
2019-05-10T08:10:21.460Z,27.43
2019-05-10T08:12:50.641Z,25.93
2019-05-10T08:15:24.838Z,23.43
2019-05-10T08:17:52.613Z,24.23
2019-05-10T08:20:41.065Z,25.43
2019-05-10T08:22:53.233Z,23.77
2019-05-10T08:25:23.173Z,22.63
2019-05-10T08:27:55.270Z,20.73
2019-05-10T08:30:52.273Z,21.70
2019-05-10T08:33:15.210Z,19.07
2019-05-10T08:35:46.515Z,29.00
2019-05-10T08:38:15.964Z,20.83
2019-05-10T08:40:45.378Z,19.07
2019-05-10T08:43:16.867Z,19.17
2019-05-10T08:45:49.524Z,19.63
2019-05-10T08:48:17.340Z,19.50
2019-05-10T08:50:55.968Z,17.80
2019-05-10T08:53:17.905Z,18.07
2019-05-10T08:55:47.275Z,17.13
2019-05-10T08:58:24.405Z,16.97
2019-05-10T09:00:54.650Z,16.97
2019-05-10T09:03:19.406Z,15.27
2019-05-10T09:05:48.931Z,17.13
2019-05-10T09:08:20.247Z,17.60
2019-05-10T09:10:49.561Z,16.30
2019-05-10T09:13:19.046Z,13.80
2019-05-10T09:15:54.353Z,15.47
2019-05-10T09:18:19.949Z,15.20
2019-05-10T09:20:51.465Z,14.73
2019-05-10T09:23:22.702Z,15.27
2019-05-10T09:25:52.073Z,14.63
2019-05-10T09:28:22.031Z,15.40
2019-05-10T09:31:00.387Z,15.13
2019-05-10T09:33:22.913Z,13.07
2019-05-10T09:35:55.029Z,13.30
2019-05-10T09:38:28.797Z,12.33
2019-05-10T09:40:56.266Z,12.77
2019-05-10T09:43:25.980Z,12.60
2019-05-10T09:45:55.422Z,12.97
2019-05-10T09:48:25.069Z,10.20
2019-05-10T09:50:56.312Z,9.70
2019-05-10T09:53:29.503Z,9.67
2019-05-10T09:56:02.618Z,9.93
2019-05-10T09:58:28.710Z,8.60
2019-05-10T10:01:13.957Z,9.70
2019-05-10T10:03:30.008Z,8.50
2019-05-10T10:06:05.814Z,7.70
2019-05-10T10:08:31.782Z,8.27
2019-05-10T10:11:10.328Z,9.87
2019-05-10T10:13:39.977Z,9.40
2019-05-10T10:16:08.613Z,9.50
2019-05-10T10:18:37.090Z,9.80
2019-05-10T10:21:06.517Z,9.73
2019-05-10T10:23:37.770Z,9.17
2019-05-10T10:26:12.756Z,9.27
2019-05-10T10:28:39.806Z,9.00
2019-05-10T10:31:09.705Z,8.00
2019-05-10T10:33:42.473Z,8.53
2019-05-10T10:36:18.070Z,8.33
2019-05-10T10:38:52.712Z,8.20
2019-05-10T10:41:26.371Z,8.80
2019-05-10T10:43:58.670Z,8.87
2019-05-10T10:46:35.785Z,7.93
2019-05-10T10:49:05.661Z,8.63
2019-05-10T10:51:38.320Z,9.20
2019-05-10T10:54:07.838Z,8.90
2019-05-10T10:56:37.714Z,6.63
2019-05-10T10:59:07.617Z,6.03
2019-05-10T11:01:49.035Z,6.13
2019-05-10T11:04:09.760Z,7.90
2019-05-10T11:06:39.431Z,7.53
2019-05-10T11:09:09.355Z,7.50
2019-05-10T11:11:43.898Z,7.70
2019-05-10T11:14:11.103Z,7.10
2019-05-10T11:16:41.272Z,7.00
2019-05-10T11:19:15.349Z,6.27
2019-05-10T11:21:42.524Z,5.50
2019-05-10T11:24:18.042Z,4.50
2019-05-10T11:26:44.938Z,5.00
2019-05-10T11:29:25.530Z,4.10
2019-05-10T11:31:48.717Z,3.60
2019-05-10T11:34:16.675Z,3.33
2019-05-10T11:36:48.161Z,3.40
2019-05-10T11:39:25.951Z,4.30
2019-05-10T11:41:53.336Z,4.33
2019-05-10T11:44:22.064Z,4.10
2019-05-10T11:46:50.946Z,4.93
2019-05-10T11:49:20.559Z,4.10
2019-05-10T11:51:54.802Z,3.73
2019-05-10T11:54:21.632Z,4.20
2019-05-10T11:56:52.235Z,4.30
2019-05-10T11:59:22.016Z,4.10
2019-05-10T12:01:57.862Z,4.63
2019-05-10T12:04:35.615Z,4.60
2019-05-10T12:06:53.723Z,4.30
2019-05-10T12:09:24.513Z,4.13
2019-05-10T12:11:56.643Z,12.57
2019-05-10T12:14:25.238Z,17.70
2019-05-10T12:16:54.876Z,13.20
2019-05-10T12:19:24.423Z,12.73
2019-05-10T12:21:56.032Z,13.10
2019-05-10T12:24:38.959Z,14.97
2019-05-10T12:29:27.374Z,17.87
2019-05-10T12:31:57.241Z,17.70
2019-05-10T12:34:26.782Z,17.33
2019-05-10T12:36:57.513Z,15.90
2019-05-10T12:39:27.365Z,15.93
2019-05-10T12:41:56.908Z,15.20
2019-05-10T12:44:26.334Z,14.30
2019-05-10T12:46:55.812Z,15.20
2019-05-10T12:49:25.502Z,14.70
2019-05-10T12:51:54.985Z,14.50
2019-05-10T12:54:25.518Z,14.23
2019-05-10T12:56:55.101Z,14.67
2019-05-10T12:59:24.518Z,14.33
2019-05-10T13:01:53.984Z,14.43
2019-05-10T13:04:39.428Z,13.87
2019-05-10T13:06:54.572Z,15.30
2019-05-10T13:09:38.508Z,14.30
2019-05-10T13:12:03.007Z,13.07
2019-05-10T13:14:29.035Z,15.00
2019-05-10T13:16:57.476Z,13.27
2019-05-10T13:19:27.218Z,14.07
2019-05-10T13:21:58.707Z,15.47
2019-05-10T13:24:28.001Z,14.40
2019-05-10T13:26:57.557Z,13.47
2019-05-10T13:29:27.026Z,14.53
2019-05-10T13:31:56.883Z,13.20
2019-05-10T13:34:26.394Z,15.43
2019-05-10T13:36:55.912Z,16.20
2019-05-10T13:39:27.361Z,17.67
2019-05-10T13:41:57.148Z,18.50
2019-05-10T13:44:27.874Z,17.90
2019-05-10T13:46:57.778Z,17.93
2019-05-10T13:49:27.310Z,16.63
2019-05-10T13:51:56.910Z,16.77
2019-05-10T13:54:31.165Z,17.77
2019-05-10T13:56:57.503Z,17.73
2019-05-10T13:59:26.845Z,18.60
2019-05-10T14:01:56.434Z,18.63
2019-05-10T14:04:26.037Z,18.70
2019-05-10T14:06:55.571Z,20.33
2019-05-10T14:09:25.035Z,18.67
2019-05-10T14:11:54.578Z,20.37
2019-05-10T14:14:26.621Z,20.93
2019-05-10T14:16:55.333Z,20.30
2019-05-10T14:19:25.417Z,19.57
2019-05-10T14:21:55.574Z,20.33
2019-05-10T14:24:25.121Z,19.53
2019-05-10T14:26:57.070Z,19.47
2019-05-10T14:29:33.975Z,19.97
2019-05-10T14:31:56.967Z,19.43
2019-05-10T14:34:26.430Z,19.13
2019-05-10T14:36:56.222Z,18.77
2019-05-10T14:39:25.797Z,20.30
2019-05-10T14:41:55.487Z,21.23
2019-05-10T14:44:25.108Z,20.03
2019-05-10T14:46:54.920Z,21.60
2019-05-10T14:49:24.375Z,19.57
2019-05-10T14:51:59.153Z,19.07
2019-05-10T14:54:25.176Z,19.13
2019-05-10T14:56:54.701Z,17.87
2019-05-10T14:59:24.175Z,16.43
2019-05-10T15:01:54.429Z,15.93
2019-05-10T15:06:56.392Z,13.20
2019-05-10T15:09:25.827Z,15.63
2019-05-10T15:11:55.463Z,14.28
2019-05-10T15:14:25.274Z,13.10
2019-05-10T15:16:54.820Z,13.00
2019-05-10T15:19:27.320Z,12.60
2019-05-10T15:21:56.019Z,13.60
2019-05-10T15:24:25.640Z,13.80
2019-05-10T15:26:55.937Z,13.80
2019-05-10T15:29:26.111Z,14.13
2019-05-10T15:31:55.853Z,14.00
2019-05-10T15:34:25.705Z,13.47
2019-05-10T15:36:56.063Z,11.63
2019-05-10T15:39:28.768Z,11.12
2019-05-10T15:41:58.993Z,10.60
2019-05-10T15:44:31.513Z,11.48
2019-05-10T15:46:59.680Z,12.75
2019-05-10T15:49:29.229Z,10.75
2019-05-10T15:52:16.391Z,9.35
2019-05-10T15:54:29.970Z,11.10
2019-05-10T15:56:59.959Z,11.33
2019-05-10T15:59:29.482Z,23.42
2019-05-10T16:01:58.928Z,10.72
2019-05-10T16:04:28.751Z,11.75
2019-05-10T16:06:58.286Z,10.05
2019-05-10T16:09:27.821Z,11.48
2019-05-10T16:12:01.913Z,11.88
2019-05-10T16:14:33.165Z,12.23
2019-05-10T16:17:00.016Z,12.50
2019-05-10T16:19:29.383Z,11.37
2019-05-10T16:21:58.834Z,11.80
2019-05-10T16:24:28.594Z,12.20
2019-05-10T16:27:00.073Z,13.37
2019-05-10T16:29:33.690Z,13.03
2019-05-10T16:32:00.583Z,12.67
2019-05-10T16:34:32.280Z,13.30
2019-05-10T16:37:01.243Z,12.60
2019-05-10T16:39:30.984Z,13.33
2019-05-10T16:42:00.447Z,14.13
2019-05-10T16:44:29.895Z,13.77
2019-05-10T16:46:59.422Z,13.10
2019-05-10T16:49:28.986Z,13.33
2019-05-10T16:51:58.683Z,13.30
2019-05-10T16:54:28.335Z,13.77
2019-05-10T16:56:59.944Z,13.90
2019-05-10T16:59:29.626Z,13.40
2019-05-10T17:02:06.033Z,13.63
2019-05-10T17:04:37.308Z,14.27
2019-05-10T17:07:03.080Z,14.97
2019-05-10T17:09:32.516Z,14.83
2019-05-10T17:12:02.425Z,15.80
2019-05-10T17:14:31.948Z,14.57
2019-05-10T17:17:01.870Z,15.93
2019-05-10T17:19:34.186Z,14.80
2019-05-10T17:22:03.545Z,14.97
2019-05-10T17:24:33.170Z,16.13
2019-05-10T17:27:02.745Z,15.83
2019-05-10T17:29:32.155Z,14.23
2019-05-10T17:32:01.725Z,14.47
2019-05-10T17:34:31.396Z,16.87
2019-05-10T17:37:01.481Z,15.40
2019-05-10T17:39:34.028Z,14.67
2019-05-10T17:42:04.659Z,14.70
2019-05-10T17:44:34.092Z,17.17
2019-05-10T17:47:03.777Z,14.67
2019-05-10T17:49:33.472Z,14.63
2019-05-10T17:52:03.238Z,15.60
2019-05-10T17:54:33.666Z,14.63
2019-05-10T17:57:04.288Z,18.40
2019-05-10T17:59:34.037Z,17.73
2019-05-10T18:02:03.676Z,20.00
2019-05-10T18:04:33.239Z,14.53
2019-05-10T18:07:02.884Z,16.57
2019-05-10T18:09:32.479Z,15.93
2019-05-10T18:12:02.165Z,15.23
2019-05-10T18:14:32.018Z,15.70
2019-05-10T18:17:02.132Z,18.53
2019-05-10T18:19:31.957Z,15.50
2019-05-10T18:22:06.309Z,15.93
2019-05-10T18:24:36.463Z,18.27
2019-05-10T18:27:04.970Z,16.47
2019-05-10T18:29:34.763Z,16.67
2019-05-10T18:32:05.100Z,17.17
2019-05-10T18:34:35.435Z,17.23
2019-05-10T18:37:05.120Z,15.77
2019-05-10T18:39:34.705Z,17.87
2019-05-10T18:42:04.387Z,18.93
2019-05-10T18:44:34.236Z,18.67
2019-05-10T18:47:10.063Z,18.87
2019-05-10T18:49:39.705Z,18.13
2019-05-10T18:52:09.289Z,19.60
2019-05-10T18:54:40.791Z,18.20
2019-05-10T18:57:12.246Z,18.40
2019-05-10T18:59:45.404Z,18.23
2019-05-10T19:02:17.736Z,18.40
2019-05-10T19:04:45.823Z,18.50
2019-05-10T19:07:16.243Z,17.63
2019-05-10T19:09:45.797Z,17.30
2019-05-10T19:12:18.846Z,18.07
2019-05-10T19:14:46.658Z,18.43
2019-05-10T19:17:16.164Z,17.97
2019-05-10T19:19:45.560Z,17.77
2019-05-10T19:22:15.205Z,18.10
2019-05-10T19:24:46.458Z,24.93
2019-05-10T19:27:16.230Z,18.43
2019-05-10T19:29:47.835Z,18.30
2019-05-10T19:32:20.071Z,17.93
2019-05-10T19:34:56.749Z,18.20
2019-05-10T19:37:28.902Z,17.67
2019-05-10T19:39:50.607Z,19.43
2019-05-10T19:42:20.216Z,17.90
2019-05-10T19:44:49.843Z,16.73
2019-05-10T19:47:20.102Z,15.20
2019-05-10T19:49:51.805Z,15.73
2019-05-10T19:52:25.892Z,14.97
2019-05-10T19:54:52.125Z,14.67
2019-05-10T19:57:21.792Z,12.20
2019-05-10T19:59:51.284Z,13.67
2019-05-10T20:02:21.347Z,14.23
2019-05-10T20:04:50.880Z,17.13
2019-05-10T20:07:20.459Z,16.73
2019-05-10T20:09:50.026Z,17.60
2019-05-10T20:12:19.545Z,17.67
2019-05-10T20:14:49.122Z,20.00
2019-05-10T20:17:18.683Z,19.87
2019-05-10T20:19:48.405Z,18.77
2019-05-10T20:22:18.133Z,19.20
2019-05-10T20:24:47.673Z,19.70
2019-05-10T20:27:17.687Z,19.47
2019-05-10T20:29:47.525Z,18.40
2019-05-10T20:32:17.087Z,17.27
2019-05-10T20:34:46.557Z,19.87
2019-05-10T20:37:16.025Z,18.00
2019-05-10T20:39:45.682Z,18.20
2019-05-10T20:42:15.182Z,17.43
2019-05-10T20:44:44.658Z,16.53
2019-05-10T20:47:14.159Z,17.60
2019-05-10T20:49:43.695Z,17.27
2019-05-10T20:52:13.345Z,20.60
2019-05-10T20:54:42.759Z,20.97
2019-05-10T20:57:12.270Z,18.17
2019-05-10T20:59:41.923Z,25.07
2019-05-10T21:02:11.459Z,17.27
2019-05-10T21:04:40.955Z,18.87
2019-05-10T21:07:10.440Z,18.47
2019-05-10T21:09:40.033Z,18.17
2019-05-10T21:12:09.506Z,17.90
2019-05-10T21:14:38.992Z,18.67
2019-05-10T21:17:08.549Z,18.47
2019-05-10T21:19:38.070Z,20.90
2019-05-10T21:22:07.784Z,24.20
2019-05-10T21:24:37.337Z,21.97
2019-05-10T21:27:06.981Z,28.70
2019-05-10T21:29:36.483Z,33.40
2019-05-10T21:32:06.280Z,25.23
2019-05-10T21:34:35.992Z,28.27
2019-05-10T21:37:05.653Z,28.83
2019-05-10T21:39:35.273Z,29.80
2019-05-10T21:42:04.768Z,27.90
2019-05-10T21:44:35.108Z,29.23
2019-05-10T21:47:04.887Z,27.00
2019-05-10T21:49:34.431Z,27.83
2019-05-10T21:52:03.849Z,41.13
2019-05-10T21:54:33.455Z,27.27
2019-05-10T21:57:03.202Z,26.80
2019-05-10T21:59:32.705Z,27.97
2019-05-10T22:02:02.718Z,38.00
2019-05-10T22:04:32.110Z,27.77
2019-05-10T22:07:01.698Z,26.10
2019-05-10T22:09:31.279Z,27.23
2019-05-10T22:12:00.710Z,27.27
2019-05-10T22:14:30.133Z,27.03
2019-05-10T22:16:59.679Z,25.50
2019-05-10T22:19:29.083Z,27.73
2019-05-10T22:21:58.569Z,27.13
2019-05-10T22:24:28.102Z,27.87
2019-05-10T22:26:57.558Z,27.03
2019-05-10T22:29:27.071Z,25.43
2019-05-10T22:31:56.539Z,24.70
2019-05-10T22:34:26.002Z,36.33
2019-05-10T22:36:55.412Z,27.00
2019-05-10T22:39:24.871Z,25.83
2019-05-10T22:41:54.291Z,24.10
2019-05-10T22:44:23.891Z,25.60
2019-05-10T22:46:53.300Z,24.67
2019-05-10T22:49:22.725Z,25.77
2019-05-10T22:51:52.196Z,25.70
2019-05-10T22:54:21.619Z,26.43
2019-05-10T22:56:51.062Z,27.30
2019-05-10T22:59:20.556Z,26.13
2019-05-10T23:01:49.915Z,32.93
2019-05-10T23:04:19.396Z,27.17
2019-05-10T23:06:49.207Z,27.07
2019-05-10T23:09:24.833Z,27.23
2019-05-10T23:11:49.600Z,26.50
2019-05-10T23:14:20.073Z,27.93
2019-05-10T23:16:49.563Z,28.87
2019-05-10T23:19:18.975Z,27.90
2019-05-10T23:21:48.352Z,29.67
2019-05-10T23:24:17.871Z,29.33
2019-05-10T23:26:47.514Z,29.40
2019-05-10T23:29:16.946Z,29.53
2019-05-10T23:31:46.440Z,29.23
2019-05-10T23:34:15.848Z,30.53
2019-05-10T23:36:45.181Z,30.77
2019-05-10T23:39:14.646Z,31.40
2019-05-10T23:41:44.239Z,31.80
2019-05-10T23:44:13.689Z,30.40
2019-05-10T23:46:43.012Z,31.07
2019-05-10T23:49:12.700Z,35.03
2019-05-10T23:51:42.122Z,38.93
2019-05-10T23:54:11.541Z,37.57
2019-05-10T23:56:40.961Z,36.83
2019-05-10T23:59:10.525Z,38.70
